Terminal Aerodrome Forecast
Issued by NWS Grand Forks, ND

Home | Current Version | Previous Version | Text Only | Print | Product List | Glossary Off
Versions: 1 2 3 4 5 6 7 8 9 10 11 12 13 14 15 16 17 18 19 20 21 22 23 24

860
FTUS43 KFGF 250520
TAFFAR
TAF
KFAR 250520Z 2506/2606 07008KT P6SM SCT250
     FM251500 09011KT P6SM -SHRA OVC100
     FM251600 09010KT 5SM -TSRA BKN050CB
     FM251900 12012KT P6SM VCTS BKN050CB
     FM260200 11007KT P6SM VCSH BKN025=

USA.gov is the U.S. government's official web portal to all federal, state and local government web resources and services.